Kezdőlap
METAR-TAF:

METAR-TAF

Repülőterek :

Lake County Airport

Leadville, Colorado, Amerikai Egyesült Államok

földrajzi szélesség: 39-13-41N, földrajzi hosszúság: 106-18-58W, magasság: 3026 m

Jelenlegi meteorológiai megfigyelések

A jelentés 1 órával és 6 perccel ezelõtt készült, 05:53 UTC
Kelet-északkeleti szél 6 kt
Hőmérséklet 9°C
Páratartalom 71%
Légköri nyomás 1033 hPa
Látótávolság: 16.1 km
Derült ég

METAR: KLXV 240553Z AUTO 06006KT 10SM CLR 09/04 A3049 RMK AO2 SLP136 T00940044 10239 20089 51007

Idő: 00:59 (06:59 UTC)


TAF: hiányzik

Meteorológiai megfigyelések és előrejelzések több, mint 4000 repülőtéren (METAR és TAF jelentéseket).

A térképen piros és sárga pontok jelzik az elérhető meteorológiai állomásokat.

Mozgassa az egeret a pont fölött, hogy megjelenjen az állomás neve.

Azután kattintson az időjárási megfigyelések és előrejelzések megtekintéséhez.

A térkép megváltoztatása: kattintson a fekete keresztel jelölt zöld gombra ráközelítéshez, a vonallal jelölt zöld gombra távolításhoz, vagy a zöld nyilakra a szomszédos térképek eléréséhez.


METAR-TAF: